sensor_id;sensor_type;location;lat;lon;timestamp;P1;durP1;ratioP1;P2;durP2;ratioP2
24401;SDS011;12539;48.808;11.292;2022-07-23T00:01:23;6.03;;;5.43;;
24401;SDS011;12539;48.808;11.292;2022-07-23T00:03:49;6.53;;;5.70;;
24401;SDS011;12539;48.808;11.292;2022-07-23T00:06:15;5.85;;;5.30;;
24401;SDS011;12539;48.808;11.292;2022-07-23T00:08:41;6.97;;;5.93;;
24401;SDS011;12539;48.808;11.292;2022-07-23T00:11:07;7.20;;;6.50;;
24401;SDS011;12539;48.808;11.292;2022-07-23T00:13:32;10.48;;;7.15;;
24401;SDS011;12539;48.808;11.292;2022-07-23T00:15:58;7.18;;;6.47;;
24401;SDS011;12539;48.808;11.292;2022-07-23T00:18:24;9.20;;;7.28;;
24401;SDS011;12539;48.808;11.292;2022-07-23T00:20:50;8.32;;;6.35;;
24401;SDS011;12539;48.808;11.292;2022-07-23T00:23:16;6.25;;;5.65;;
24401;SDS011;12539;48.808;11.292;2022-07-23T00:25:42;5.18;;;4.68;;
24401;SDS011;12539;48.808;11.292;2022-07-23T00:28:08;5.90;;;5.30;;
24401;SDS011;12539;48.808;11.292;2022-07-23T00:30:34;6.07;;;5.38;;
24401;SDS011;12539;48.808;11.292;2022-07-23T00:33:00;5.43;;;4.93;;
24401;SDS011;12539;48.808;11.292;2022-07-23T00:35:30;6.03;;;5.53;;
24401;SDS011;12539;48.808;11.292;2022-07-23T00:38:00;5.88;;;5.28;;
24401;SDS011;12539;48.808;11.292;2022-07-23T00:40:27;6.40;;;5.80;;
24401;SDS011;12539;48.808;11.292;2022-07-23T00:42:54;5.97;;;5.45;;
24401;SDS011;12539;48.808;11.292;2022-07-23T00:45:20;7.80;;;5.68;;
24401;SDS011;12539;48.808;11.292;2022-07-23T00:47:46;6.82;;;6.05;;
24401;SDS011;12539;48.808;11.292;2022-07-23T00:50:12;7.07;;;6.45;;
24401;SDS011;12539;48.808;11.292;2022-07-23T00:52:39;6.32;;;5.63;;
24401;SDS011;12539;48.808;11.292;2022-07-23T00:55:05;5.40;;;4.63;;
24401;SDS011;12539;48.808;11.292;2022-07-23T00:57:32;7.38;;;6.00;;
24401;SDS011;12539;48.808;11.292;2022-07-23T00:59:58;6.78;;;5.57;;
24401;SDS011;12539;48.808;11.292;2022-07-23T01:02:25;7.47;;;5.22;;
24401;SDS011;12539;48.808;11.292;2022-07-23T01:04:51;8.48;;;5.82;;
24401;SDS011;12539;48.808;11.292;2022-07-23T01:07:17;9.88;;;6.32;;
24401;SDS011;12539;48.808;11.292;2022-07-23T01:09:44;7.55;;;5.88;;
24401;SDS011;12539;48.808;11.292;2022-07-23T01:12:11;8.30;;;5.47;;
24401;SDS011;12539;48.808;11.292;2022-07-23T01:14:37;8.13;;;5.70;;
24401;SDS011;12539;48.808;11.292;2022-07-23T01:17:02;10.40;;;6.05;;
24401;SDS011;12539;48.808;11.292;2022-07-23T01:19:28;6.28;;;5.68;;
24401;SDS011;12539;48.808;11.292;2022-07-23T01:21:54;6.80;;;5.35;;
24401;SDS011;12539;48.808;11.292;2022-07-23T01:24:23;8.30;;;5.88;;
24401;SDS011;12539;48.808;11.292;2022-07-23T01:26:49;6.63;;;5.53;;
24401;SDS011;12539;48.808;11.292;2022-07-23T01:29:15;6.68;;;6.03;;
24401;SDS011;12539;48.808;11.292;2022-07-23T01:31:41;8.30;;;6.63;;
24401;SDS011;12539;48.808;11.292;2022-07-23T01:34:08;7.13;;;6.43;;
24401;SDS011;12539;48.808;11.292;2022-07-23T01:36:34;8.10;;;6.38;;
24401;SDS011;12539;48.808;11.292;2022-07-23T01:39:01;6.18;;;5.07;;
24401;SDS011;12539;48.808;11.292;2022-07-23T01:41:27;8.00;;;6.15;;
24401;SDS011;12539;48.808;11.292;2022-07-23T01:43:53;5.82;;;5.22;;
24401;SDS011;12539;48.808;11.292;2022-07-23T01:46:19;6.32;;;5.72;;
24401;SDS011;12539;48.808;11.292;2022-07-23T01:48:44;8.90;;;6.65;;
24401;SDS011;12539;48.808;11.292;2022-07-23T01:51:10;7.82;;;5.35;;
24401;SDS011;12539;48.808;11.292;2022-07-23T01:53:36;5.32;;;4.82;;
24401;SDS011;12539;48.808;11.292;2022-07-23T01:56:02;9.27;;;6.38;;
24401;SDS011;12539;48.808;11.292;2022-07-23T01:58:28;7.95;;;5.85;;
24401;SDS011;12539;48.808;11.292;2022-07-23T02:00:54;8.68;;;7.03;;
24401;SDS011;12539;48.808;11.292;2022-07-23T02:03:20;8.13;;;6.28;;
24401;SDS011;12539;48.808;11.292;2022-07-23T02:05:47;8.27;;;5.75;;
24401;SDS011;12539;48.808;11.292;2022-07-23T02:08:13;5.93;;;5.32;;
24401;SDS011;12539;48.808;11.292;2022-07-23T02:10:38;7.93;;;6.25;;
24401;SDS011;12539;48.808;11.292;2022-07-23T02:13:04;6.38;;;5.72;;
24401;SDS011;12539;48.808;11.292;2022-07-23T02:15:30;8.48;;;7.10;;
24401;SDS011;12539;48.808;11.292;2022-07-23T02:17:56;11.18;;;7.30;;
24401;SDS011;12539;48.808;11.292;2022-07-23T02:20:22;9.38;;;5.88;;
24401;SDS011;12539;48.808;11.292;2022-07-23T02:22:47;7.55;;;6.75;;
24401;SDS011;12539;48.808;11.292;2022-07-23T02:25:14;7.90;;;6.25;;
24401;SDS011;12539;48.808;11.292;2022-07-23T02:27:39;7.28;;;6.00;;
24401;SDS011;12539;48.808;11.292;2022-07-23T02:30:06;7.78;;;6.88;;
24401;SDS011;12539;48.808;11.292;2022-07-23T02:32:32;9.73;;;6.55;;
24401;SDS011;12539;48.808;11.292;2022-07-23T02:34:58;7.18;;;6.30;;
24401;SDS011;12539;48.808;11.292;2022-07-23T02:37:24;7.55;;;6.28;;
24401;SDS011;12539;48.808;11.292;2022-07-23T02:39:50;7.38;;;6.05;;
24401;SDS011;12539;48.808;11.292;2022-07-23T02:42:15;6.07;;;5.22;;
24401;SDS011;12539;48.808;11.292;2022-07-23T02:44:42;14.40;;;6.40;;
24401;SDS011;12539;48.808;11.292;2022-07-23T02:47:08;8.48;;;6.90;;
24401;SDS011;12539;48.808;11.292;2022-07-23T02:49:34;9.63;;;6.18;;
24401;SDS011;12539;48.808;11.292;2022-07-23T02:51:59;5.22;;;4.75;;
24401;SDS011;12539;48.808;11.292;2022-07-23T02:54:25;6.53;;;5.68;;
24401;SDS011;12539;48.808;11.292;2022-07-23T02:56:51;5.28;;;4.78;;
24401;SDS011;12539;48.808;11.292;2022-07-23T02:59:18;9.52;;;7.30;;
24401;SDS011;12539;48.808;11.292;2022-07-23T03:01:44;8.00;;;7.20;;
24401;SDS011;12539;48.808;11.292;2022-07-23T03:04:11;7.60;;;6.25;;
24401;SDS011;12539;48.808;11.292;2022-07-23T03:06:37;5.60;;;5.10;;
24401;SDS011;12539;48.808;11.292;2022-07-23T03:09:03;6.55;;;5.45;;
24401;SDS011;12539;48.808;11.292;2022-07-23T03:11:29;6.55;;;5.45;;
24401;SDS011;12539;48.808;11.292;2022-07-23T03:13:56;7.72;;;6.13;;
24401;SDS011;12539;48.808;11.292;2022-07-23T03:16:21;8.10;;;6.00;;
24401;SDS011;12539;48.808;11.292;2022-07-23T03:18:47;7.05;;;6.32;;
24401;SDS011;12539;48.808;11.292;2022-07-23T03:21:13;6.88;;;5.82;;
24401;SDS011;12539;48.808;11.292;2022-07-23T03:23:38;9.27;;;5.95;;
24401;SDS011;12539;48.808;11.292;2022-07-23T03:26:04;11.30;;;6.35;;
24401;SDS011;12539;48.808;11.292;2022-07-23T03:28:30;6.45;;;5.82;;
24401;SDS011;12539;48.808;11.292;2022-07-23T03:30:56;9.30;;;7.03;;
24401;SDS011;12539;48.808;11.292;2022-07-23T03:33:22;6.05;;;5.32;;
24401;SDS011;12539;48.808;11.292;2022-07-23T03:35:48;5.15;;;4.65;;
24401;SDS011;12539;48.808;11.292;2022-07-23T03:38:14;6.28;;;5.68;;
24401;SDS011;12539;48.808;11.292;2022-07-23T03:40:40;7.50;;;6.65;;
24401;SDS011;12539;48.808;11.292;2022-07-23T03:43:06;7.70;;;5.97;;
24401;SDS011;12539;48.808;11.292;2022-07-23T03:45:32;7.68;;;6.82;;
24401;SDS011;12539;48.808;11.292;2022-07-23T03:47:58;5.50;;;5.00;;
24401;SDS011;12539;48.808;11.292;2022-07-23T03:50:24;5.88;;;5.00;;
24401;SDS011;12539;48.808;11.292;2022-07-23T03:52:50;6.72;;;6.03;;
24401;SDS011;12539;48.808;11.292;2022-07-23T03:55:15;6.13;;;5.43;;
24401;SDS011;12539;48.808;11.292;2022-07-23T03:57:41;7.55;;;5.47;;
24401;SDS011;12539;48.808;11.292;2022-07-23T04:00:08;5.88;;;5.10;;
24401;SDS011;12539;48.808;11.292;2022-07-23T04:02:35;7.45;;;4.95;;
24401;SDS011;12539;48.808;11.292;2022-07-23T04:05:02;6.68;;;6.07;;
24401;SDS011;12539;48.808;11.292;2022-07-23T04:07:28;8.40;;;7.53;;
24401;SDS011;12539;48.808;11.292;2022-07-23T04:09:53;6.93;;;6.18;;
24401;SDS011;12539;48.808;11.292;2022-07-23T04:12:19;9.35;;;7.90;;
24401;SDS011;12539;48.808;11.292;2022-07-23T04:14:45;6.00;;;5.47;;
24401;SDS011;12539;48.808;11.292;2022-07-23T04:17:11;11.18;;;7.97;;
24401;SDS011;12539;48.808;11.292;2022-07-23T04:19:37;5.10;;;4.70;;
24401;SDS011;12539;48.808;11.292;2022-07-23T04:22:06;6.80;;;6.13;;
24401;SDS011;12539;48.808;11.292;2022-07-23T04:24:32;7.45;;;6.47;;
24401;SDS011;12539;48.808;11.292;2022-07-23T04:26:58;5.88;;;5.38;;
24401;SDS011;12539;48.808;11.292;2022-07-23T04:29:24;8.20;;;6.47;;
24401;SDS011;12539;48.808;11.292;2022-07-23T04:31:49;6.47;;;5.78;;
24401;SDS011;12539;48.808;11.292;2022-07-23T04:34:15;5.93;;;5.38;;
24401;SDS011;12539;48.808;11.292;2022-07-23T04:36:41;5.30;;;4.80;;
24401;SDS011;12539;48.808;11.292;2022-07-23T04:39:07;5.45;;;4.95;;
24401;SDS011;12539;48.808;11.292;2022-07-23T04:41:32;7.60;;;6.22;;
24401;SDS011;12539;48.808;11.292;2022-07-23T04:43:59;6.13;;;5.53;;
24401;SDS011;12539;48.808;11.292;2022-07-23T04:46:25;8.68;;;6.10;;
24401;SDS011;12539;48.808;11.292;2022-07-23T04:48:51;10.05;;;7.30;;
24401;SDS011;12539;48.808;11.292;2022-07-23T04:51:17;5.95;;;5.45;;
24401;SDS011;12539;48.808;11.292;2022-07-23T04:53:42;6.35;;;5.75;;
24401;SDS011;12539;48.808;11.292;2022-07-23T04:56:08;6.68;;;6.03;;
24401;SDS011;12539;48.808;11.292;2022-07-23T04:58:34;6.22;;;5.65;;
24401;SDS011;12539;48.808;11.292;2022-07-23T05:00:59;5.55;;;4.65;;
24401;SDS011;12539;48.808;11.292;2022-07-23T05:03:25;8.23;;;6.75;;
24401;SDS011;12539;48.808;11.292;2022-07-23T05:05:51;6.18;;;5.45;;
24401;SDS011;12539;48.808;11.292;2022-07-23T05:08:16;6.95;;;6.00;;
24401;SDS011;12539;48.808;11.292;2022-07-23T05:10:42;7.80;;;6.80;;
24401;SDS011;12539;48.808;11.292;2022-07-23T05:13:08;4.55;;;4.15;;
24401;SDS011;12539;48.808;11.292;2022-07-23T05:15:34;8.57;;;5.72;;
24401;SDS011;12539;48.808;11.292;2022-07-23T05:17:59;6.82;;;6.22;;
24401;SDS011;12539;48.808;11.292;2022-07-23T05:20:25;7.30;;;6.60;;
24401;SDS011;12539;48.808;11.292;2022-07-23T05:22:51;5.90;;;5.40;;
24401;SDS011;12539;48.808;11.292;2022-07-23T05:25:17;8.38;;;7.47;;
24401;SDS011;12539;48.808;11.292;2022-07-23T05:27:43;7.90;;;7.07;;
24401;SDS011;12539;48.808;11.292;2022-07-23T05:30:09;7.65;;;5.20;;
24401;SDS011;12539;48.808;11.292;2022-07-23T05:32:35;6.72;;;6.13;;
24401;SDS011;12539;48.808;11.292;2022-07-23T05:35:02;6.50;;;5.72;;
24401;SDS011;12539;48.808;11.292;2022-07-23T05:37:28;5.40;;;4.90;;
24401;SDS011;12539;48.808;11.292;2022-07-23T05:39:54;4.90;;;4.40;;
24401;SDS011;12539;48.808;11.292;2022-07-23T05:42:20;6.90;;;6.30;;
24401;SDS011;12539;48.808;11.292;2022-07-23T05:44:46;5.15;;;4.70;;
24401;SDS011;12539;48.808;11.292;2022-07-23T05:47:12;6.10;;;5.50;;
24401;SDS011;12539;48.808;11.292;2022-07-23T05:49:38;5.10;;;4.60;;
24401;SDS011;12539;48.808;11.292;2022-07-23T05:52:04;5.45;;;4.85;;
24401;SDS011;12539;48.808;11.292;2022-07-23T05:54:33;5.82;;;5.30;;
24401;SDS011;12539;48.808;11.292;2022-07-23T05:57:00;5.32;;;4.80;;
24401;SDS011;12539;48.808;11.292;2022-07-23T05:59:26;6.13;;;5.45;;
24401;SDS011;12539;48.808;11.292;2022-07-23T06:01:52;5.57;;;5.05;;
24401;SDS011;12539;48.808;11.292;2022-07-23T06:04:17;4.72;;;4.32;;
24401;SDS011;12539;48.808;11.292;2022-07-23T06:06:43;7.82;;;5.13;;
24401;SDS011;12539;48.808;11.292;2022-07-23T06:09:09;6.88;;;5.38;;
24401;SDS011;12539;48.808;11.292;2022-07-23T06:11:35;7.13;;;5.75;;
24401;SDS011;12539;48.808;11.292;2022-07-23T06:14:01;5.35;;;4.85;;
24401;SDS011;12539;48.808;11.292;2022-07-23T06:16:27;7.65;;;5.70;;
24401;SDS011;12539;48.808;11.292;2022-07-23T06:18:53;7.15;;;6.25;;
24401;SDS011;12539;48.808;11.292;2022-07-23T06:21:19;12.30;;;7.82;;
24401;SDS011;12539;48.808;11.292;2022-07-23T06:23:45;12.48;;;7.57;;
24401;SDS011;12539;48.808;11.292;2022-07-23T06:26:10;19.10;;;9.13;;
24401;SDS011;12539;48.808;11.292;2022-07-23T06:28:36;16.38;;;8.88;;
24401;SDS011;12539;48.808;11.292;2022-07-23T06:31:02;20.60;;;9.40;;
24401;SDS011;12539;48.808;11.292;2022-07-23T06:33:27;9.18;;;6.82;;
24401;SDS011;12539;48.808;11.292;2022-07-23T06:35:53;9.98;;;5.00;;
24401;SDS011;12539;48.808;11.292;2022-07-23T06:38:19;6.30;;;4.90;;
24401;SDS011;12539;48.808;11.292;2022-07-23T06:40:44;7.40;;;4.18;;
24401;SDS011;12539;48.808;11.292;2022-07-23T06:43:10;9.88;;;5.85;;
24401;SDS011;12539;48.808;11.292;2022-07-23T06:45:36;5.45;;;4.07;;
24401;SDS011;12539;48.808;11.292;2022-07-23T06:48:02;5.90;;;4.53;;
24401;SDS011;12539;48.808;11.292;2022-07-23T06:50:28;6.70;;;4.20;;
24401;SDS011;12539;48.808;11.292;2022-07-23T06:52:54;5.07;;;3.83;;
24401;SDS011;12539;48.808;11.292;2022-07-23T06:55:21;6.32;;;4.30;;
24401;SDS011;12539;48.808;11.292;2022-07-23T06:57:46;5.50;;;3.95;;
24401;SDS011;12539;48.808;11.292;2022-07-23T07:00:12;5.75;;;3.70;;
24401;SDS011;12539;48.808;11.292;2022-07-23T07:02:38;7.38;;;4.43;;
24401;SDS011;12539;48.808;11.292;2022-07-23T07:05:04;4.93;;;3.67;;
24401;SDS011;12539;48.808;11.292;2022-07-23T07:07:30;4.47;;;3.78;;
24401;SDS011;12539;48.808;11.292;2022-07-23T07:09:56;4.32;;;3.38;;
24401;SDS011;12539;48.808;11.292;2022-07-23T07:12:21;3.50;;;3.03;;
24401;SDS011;12539;48.808;11.292;2022-07-23T07:14:47;3.90;;;3.47;;
24401;SDS011;12539;48.808;11.292;2022-07-23T07:17:13;3.78;;;3.15;;
24401;SDS011;12539;48.808;11.292;2022-07-23T07:19:40;6.32;;;4.28;;
24401;SDS011;12539;48.808;11.292;2022-07-23T07:22:06;3.67;;;3.35;;
24401;SDS011;12539;48.808;11.292;2022-07-23T07:24:32;5.65;;;4.03;;
24401;SDS011;12539;48.808;11.292;2022-07-23T07:26:58;4.32;;;3.67;;
24401;SDS011;12539;48.808;11.292;2022-07-23T07:29:23;4.18;;;3.65;;
24401;SDS011;12539;48.808;11.292;2022-07-23T07:31:49;5.43;;;4.93;;
24401;SDS011;12539;48.808;11.292;2022-07-23T07:34:15;3.88;;;3.40;;
24401;SDS011;12539;48.808;11.292;2022-07-23T07:36:41;5.68;;;3.72;;
24401;SDS011;12539;48.808;11.292;2022-07-23T07:39:08;4.53;;;3.20;;
24401;SDS011;12539;48.808;11.292;2022-07-23T07:41:35;4.43;;;4.05;;
24401;SDS011;12539;48.808;11.292;2022-07-23T07:44:01;5.53;;;4.32;;
24401;SDS011;12539;48.808;11.292;2022-07-23T07:46:27;6.03;;;4.30;;
24401;SDS011;12539;48.808;11.292;2022-07-23T07:48:53;4.70;;;3.65;;
24401;SDS011;12539;48.808;11.292;2022-07-23T07:51:19;4.38;;;3.95;;
24401;SDS011;12539;48.808;11.292;2022-07-23T07:53:44;4.10;;;3.70;;
24401;SDS011;12539;48.808;11.292;2022-07-23T07:56:10;6.60;;;3.67;;
24401;SDS011;12539;48.808;11.292;2022-07-23T07:58:36;4.07;;;3.78;;
24401;SDS011;12539;48.808;11.292;2022-07-23T08:01:01;4.18;;;3.38;;
24401;SDS011;12539;48.808;11.292;2022-07-23T08:03:27;4.38;;;3.70;;
24401;SDS011;12539;48.808;11.292;2022-07-23T08:05:53;4.13;;;3.63;;
24401;SDS011;12539;48.808;11.292;2022-07-23T08:08:19;3.75;;;2.88;;
24401;SDS011;12539;48.808;11.292;2022-07-23T08:10:45;3.28;;;2.97;;
24401;SDS011;12539;48.808;11.292;2022-07-23T08:13:14;4.00;;;3.60;;
24401;SDS011;12539;48.808;11.292;2022-07-23T08:15:41;4.40;;;4.10;;
24401;SDS011;12539;48.808;11.292;2022-07-23T08:18:08;5.43;;;3.95;;
24401;SDS011;12539;48.808;11.292;2022-07-23T08:20:34;3.90;;;3.50;;
24401;SDS011;12539;48.808;11.292;2022-07-23T08:23:03;3.17;;;2.83;;
24401;SDS011;12539;48.808;11.292;2022-07-23T08:25:31;4.45;;;4.00;;
24401;SDS011;12539;48.808;11.292;2022-07-23T08:27:59;5.25;;;4.75;;
24401;SDS011;12539;48.808;11.292;2022-07-23T08:30:27;4.60;;;4.03;;
24401;SDS011;12539;48.808;11.292;2022-07-23T08:32:54;5.25;;;4.43;;
24401;SDS011;12539;48.808;11.292;2022-07-23T08:35:35;4.32;;;4.03;;
24401;SDS011;12539;48.808;11.292;2022-07-23T08:38:03;4.40;;;4.00;;
24401;SDS011;12539;48.808;11.292;2022-07-23T08:40:31;3.72;;;3.42;;
24401;SDS011;12539;48.808;11.292;2022-07-23T08:42:59;5.22;;;4.38;;
24401;SDS011;12539;48.808;11.292;2022-07-23T08:45:26;4.15;;;3.80;;
24401;SDS011;12539;48.808;11.292;2022-07-23T08:47:53;4.72;;;4.05;;
24401;SDS011;12539;48.808;11.292;2022-07-23T08:50:21;4.57;;;3.90;;
24401;SDS011;12539;48.808;11.292;2022-07-23T08:52:49;4.90;;;4.40;;
24401;SDS011;12539;48.808;11.292;2022-07-23T08:55:16;4.75;;;4.13;;
24401;SDS011;12539;48.808;11.292;2022-07-23T08:57:47;4.60;;;4.20;;
24401;SDS011;12539;48.808;11.292;2022-07-23T09:00:14;3.67;;;2.67;;
24401;SDS011;12539;48.808;11.292;2022-07-23T09:02:41;4.93;;;4.45;;
24401;SDS011;12539;48.808;11.292;2022-07-23T09:05:09;3.92;;;3.28;;
24401;SDS011;12539;48.808;11.292;2022-07-23T09:10:23;5.43;;;4.43;;
24401;SDS011;12539;48.808;11.292;2022-07-23T09:12:49;6.57;;;4.35;;
24401;SDS011;12539;48.808;11.292;2022-07-23T09:15:15;6.53;;;4.28;;
24401;SDS011;12539;48.808;11.292;2022-07-23T09:17:41;4.10;;;3.70;;
24401;SDS011;12539;48.808;11.292;2022-07-23T09:20:15;5.97;;;4.32;;
24401;SDS011;12539;48.808;11.292;2022-07-23T09:22:45;4.30;;;3.88;;
24401;SDS011;12539;48.808;11.292;2022-07-23T09:25:15;3.97;;;3.67;;
24401;SDS011;12539;48.808;11.292;2022-07-23T09:27:46;5.10;;;4.60;;
24401;SDS011;12539;48.808;11.292;2022-07-23T09:30:15;5.32;;;4.40;;
24401;SDS011;12539;48.808;11.292;2022-07-23T09:32:41;4.13;;;3.72;;
24401;SDS011;12539;48.808;11.292;2022-07-23T09:35:07;4.80;;;4.38;;
24401;SDS011;12539;48.808;11.292;2022-07-23T09:37:34;4.47;;;4.07;;
24401;SDS011;12539;48.808;11.292;2022-07-23T09:40:04;5.25;;;4.30;;
24401;SDS011;12539;48.808;11.292;2022-07-23T09:42:34;5.13;;;4.22;;
24401;SDS011;12539;48.808;11.292;2022-07-23T09:45:00;4.07;;;3.65;;
24401;SDS011;12539;48.808;11.292;2022-07-23T09:47:27;5.10;;;4.00;;
24401;SDS011;12539;48.808;11.292;2022-07-23T09:52:31;3.28;;;2.92;;
24401;SDS011;12539;48.808;11.292;2022-07-23T09:55:02;4.43;;;3.63;;
24401;SDS011;12539;48.808;11.292;2022-07-23T09:57:29;4.30;;;3.90;;
24401;SDS011;12539;48.808;11.292;2022-07-23T09:59:57;3.83;;;3.42;;
24401;SDS011;12539;48.808;11.292;2022-07-23T10:02:26;4.55;;;4.15;;
24401;SDS011;12539;48.808;11.292;2022-07-23T10:04:56;4.38;;;4.00;;
24401;SDS011;12539;48.808;11.292;2022-07-23T10:07:22;4.63;;;4.22;;
24401;SDS011;12539;48.808;11.292;2022-07-23T10:09:52;4.55;;;3.40;;
24401;SDS011;12539;48.808;11.292;2022-07-23T10:12:19;4.10;;;3.58;;
24401;SDS011;12539;48.808;11.292;2022-07-23T10:14:48;5.45;;;3.97;;
24401;SDS011;12539;48.808;11.292;2022-07-23T10:17:15;3.78;;;3.47;;
24401;SDS011;12539;48.808;11.292;2022-07-23T10:19:40;3.40;;;3.10;;
24401;SDS011;12539;48.808;11.292;2022-07-23T10:22:28;2.65;;;2.45;;
24401;SDS011;12539;48.808;11.292;2022-07-23T10:33:11;3.58;;;3.25;;
24401;SDS011;12539;48.808;11.292;2022-07-23T10:41:10;3.70;;;3.28;;
24401;SDS011;12539;48.808;11.292;2022-07-23T10:43:36;3.60;;;3.30;;
24401;SDS011;12539;48.808;11.292;2022-07-23T10:46:35;5.35;;;3.13;;
24401;SDS011;12539;48.808;11.292;2022-07-23T10:54:38;2.35;;;2.22;;
24401;SDS011;12539;48.808;11.292;2022-07-23T10:57:08;4.55;;;3.30;;
24401;SDS011;12539;48.808;11.292;2022-07-23T11:02:25;2.90;;;2.65;;
24401;SDS011;12539;48.808;11.292;2022-07-23T11:04:52;4.65;;;2.97;;
24401;SDS011;12539;48.808;11.292;2022-07-23T11:07:18;3.88;;;3.15;;
24401;SDS011;12539;48.808;11.292;2022-07-23T11:09:45;2.67;;;2.47;;
24401;SDS011;12539;48.808;11.292;2022-07-23T11:17:27;3.83;;;3.53;;
24401;SDS011;12539;48.808;11.292;2022-07-23T11:22:35;3.92;;;3.63;;
24401;SDS011;12539;48.808;11.292;2022-07-23T11:27:40;5.80;;;3.45;;
24401;SDS011;12539;48.808;11.292;2022-07-23T11:30:55;2.90;;;2.67;;
24401;SDS011;12539;48.808;11.292;2022-07-23T11:35:33;4.85;;;3.65;;
24401;SDS011;12539;48.808;11.292;2022-07-23T11:38:08;3.47;;;3.17;;
24401;SDS011;12539;48.808;11.292;2022-07-23T11:40:47;3.38;;;3.08;;
24401;SDS011;12539;48.808;11.292;2022-07-23T11:43:14;5.03;;;4.00;;
24401;SDS011;12539;48.808;11.292;2022-07-23T11:45:47;4.10;;;3.70;;
24401;SDS011;12539;48.808;11.292;2022-07-23T11:48:21;2.50;;;2.30;;
24401;SDS011;12539;48.808;11.292;2022-07-23T11:50:57;3.60;;;3.30;;
24401;SDS011;12539;48.808;11.292;2022-07-23T11:53:27;4.03;;;3.20;;
24401;SDS011;12539;48.808;11.292;2022-07-23T11:56:03;4.35;;;3.95;;
24401;SDS011;12539;48.808;11.292;2022-07-23T11:58:30;3.83;;;3.53;;
24401;SDS011;12539;48.808;11.292;2022-07-23T12:00:56;2.97;;;2.78;;
24401;SDS011;12539;48.808;11.292;2022-07-23T12:03:22;4.15;;;3.85;;
24401;SDS011;12539;48.808;11.292;2022-07-23T12:05:47;4.60;;;4.20;;
24401;SDS011;12539;48.808;11.292;2022-07-23T12:08:13;3.97;;;3.67;;
24401;SDS011;12539;48.808;11.292;2022-07-23T12:10:43;4.20;;;3.70;;
24401;SDS011;12539;48.808;11.292;2022-07-23T12:13:13;3.00;;;2.80;;
24401;SDS011;12539;48.808;11.292;2022-07-23T12:15:42;2.83;;;2.63;;
24401;SDS011;12539;48.808;11.292;2022-07-23T12:18:14;3.28;;;2.83;;
24401;SDS011;12539;48.808;11.292;2022-07-23T12:20:49;4.47;;;4.10;;
24401;SDS011;12539;48.808;11.292;2022-07-23T12:23:20;4.43;;;4.03;;
24401;SDS011;12539;48.808;11.292;2022-07-23T12:25:48;4.32;;;3.20;;
24401;SDS011;12539;48.808;11.292;2022-07-23T12:28:17;3.15;;;2.85;;
24401;SDS011;12539;48.808;11.292;2022-07-23T12:30:45;3.35;;;2.72;;
24401;SDS011;12539;48.808;11.292;2022-07-23T12:33:22;3.67;;;2.92;;
24401;SDS011;12539;48.808;11.292;2022-07-23T12:35:57;4.30;;;3.90;;
24401;SDS011;12539;48.808;11.292;2022-07-23T12:38:25;3.28;;;2.97;;
24401;SDS011;12539;48.808;11.292;2022-07-23T12:40:56;3.30;;;2.97;;
24401;SDS011;12539;48.808;11.292;2022-07-23T12:43:29;8.80;;;3.00;;
24401;SDS011;12539;48.808;11.292;2022-07-23T12:46:03;3.65;;;3.30;;
24401;SDS011;12539;48.808;11.292;2022-07-23T12:48:30;3.42;;;3.13;;
24401;SDS011;12539;48.808;11.292;2022-07-23T12:51:05;3.40;;;3.10;;
24401;SDS011;12539;48.808;11.292;2022-07-23T12:53:36;4.05;;;3.65;;
24401;SDS011;12539;48.808;11.292;2022-07-23T12:56:10;3.25;;;2.95;;
24401;SDS011;12539;48.808;11.292;2022-07-23T12:58:43;4.13;;;3.72;;
24401;SDS011;12539;48.808;11.292;2022-07-23T13:01:21;5.40;;;4.05;;
24401;SDS011;12539;48.808;11.292;2022-07-23T13:06:53;5.88;;;3.50;;
24401;SDS011;12539;48.808;11.292;2022-07-23T13:09:29;4.43;;;4.03;;
24401;SDS011;12539;48.808;11.292;2022-07-23T13:11:56;4.07;;;3.40;;
24401;SDS011;12539;48.808;11.292;2022-07-23T13:14:23;5.53;;;3.63;;
24401;SDS011;12539;48.808;11.292;2022-07-23T13:16:50;4.15;;;3.75;;
24401;SDS011;12539;48.808;11.292;2022-07-23T13:19:17;4.35;;;3.95;;
24401;SDS011;12539;48.808;11.292;2022-07-23T13:21:44;4.50;;;3.53;;
24401;SDS011;12539;48.808;11.292;2022-07-23T13:24:11;6.55;;;3.78;;
24401;SDS011;12539;48.808;11.292;2022-07-23T13:26:38;3.83;;;3.42;;
24401;SDS011;12539;48.808;11.292;2022-07-23T13:29:04;4.15;;;3.75;;
24401;SDS011;12539;48.808;11.292;2022-07-23T13:31:30;5.25;;;3.92;;
24401;SDS011;12539;48.808;11.292;2022-07-23T13:33:56;3.50;;;3.20;;
24401;SDS011;12539;48.808;11.292;2022-07-23T13:36:22;4.60;;;3.72;;
24401;SDS011;12539;48.808;11.292;2022-07-23T13:38:47;4.95;;;4.00;;
24401;SDS011;12539;48.808;11.292;2022-07-23T13:41:13;3.92;;;3.60;;
24401;SDS011;12539;48.808;11.292;2022-07-23T13:43:41;3.63;;;3.25;;
24401;SDS011;12539;48.808;11.292;2022-07-23T13:46:07;4.13;;;3.72;;
24401;SDS011;12539;48.808;11.292;2022-07-23T13:48:33;4.00;;;3.60;;
24401;SDS011;12539;48.808;11.292;2022-07-23T13:50:58;5.78;;;3.95;;
24401;SDS011;12539;48.808;11.292;2022-07-23T13:53:24;4.97;;;4.47;;
24401;SDS011;12539;48.808;11.292;2022-07-23T13:55:50;4.35;;;3.90;;
24401;SDS011;12539;48.808;11.292;2022-07-23T13:58:17;3.75;;;3.40;;
24401;SDS011;12539;48.808;11.292;2022-07-23T14:00:48;5.22;;;3.45;;
24401;SDS011;12539;48.808;11.292;2022-07-23T14:03:16;5.70;;;3.58;;
24401;SDS011;12539;48.808;11.292;2022-07-23T14:05:42;4.95;;;4.35;;
24401;SDS011;12539;48.808;11.292;2022-07-23T14:08:08;3.58;;;3.28;;
24401;SDS011;12539;48.808;11.292;2022-07-23T14:10:35;3.85;;;3.13;;
24401;SDS011;12539;48.808;11.292;2022-07-23T14:13:01;4.32;;;2.83;;
24401;SDS011;12539;48.808;11.292;2022-07-23T14:15:27;3.45;;;3.13;;
24401;SDS011;12539;48.808;11.292;2022-07-23T14:17:55;3.88;;;2.90;;
24401;SDS011;12539;48.808;11.292;2022-07-23T14:20:21;4.18;;;2.85;;
24401;SDS011;12539;48.808;11.292;2022-07-23T14:22:56;2.63;;;2.42;;
24401;SDS011;12539;48.808;11.292;2022-07-23T14:25:28;2.33;;;2.10;;
24401;SDS011;12539;48.808;11.292;2022-07-23T14:27:53;4.28;;;3.55;;
24401;SDS011;12539;48.808;11.292;2022-07-23T14:30:19;2.90;;;2.40;;
24401;SDS011;12539;48.808;11.292;2022-07-23T14:32:49;3.08;;;2.85;;
24401;SDS011;12539;48.808;11.292;2022-07-23T14:35:21;3.80;;;3.50;;
24401;SDS011;12539;48.808;11.292;2022-07-23T14:38:10;3.20;;;3.00;;
24401;SDS011;12539;48.808;11.292;2022-07-23T14:40:45;3.58;;;3.28;;
24401;SDS011;12539;48.808;11.292;2022-07-23T14:43:11;2.65;;;2.33;;
24401;SDS011;12539;48.808;11.292;2022-07-23T14:45:40;3.38;;;3.08;;
24401;SDS011;12539;48.808;11.292;2022-07-23T14:48:06;2.72;;;2.53;;
24401;SDS011;12539;48.808;11.292;2022-07-23T14:50:31;3.17;;;2.83;;
24401;SDS011;12539;48.808;11.292;2022-07-23T14:52:57;3.72;;;3.40;;
24401;SDS011;12539;48.808;11.292;2022-07-23T14:55:23;4.70;;;3.20;;
24401;SDS011;12539;48.808;11.292;2022-07-23T14:57:49;3.63;;;3.25;;
24401;SDS011;12539;48.808;11.292;2022-07-23T15:00:15;4.57;;;4.10;;
24401;SDS011;12539;48.808;11.292;2022-07-23T15:02:41;4.38;;;4.03;;
24401;SDS011;12539;48.808;11.292;2022-07-23T15:05:07;4.50;;;4.10;;
24401;SDS011;12539;48.808;11.292;2022-07-23T15:07:33;4.25;;;3.85;;
24401;SDS011;12539;48.808;11.292;2022-07-23T15:09:59;4.60;;;4.20;;
24401;SDS011;12539;48.808;11.292;2022-07-23T15:12:25;5.43;;;4.93;;
24401;SDS011;12539;48.808;11.292;2022-07-23T15:14:50;4.03;;;3.72;;
24401;SDS011;12539;48.808;11.292;2022-07-23T15:17:16;4.60;;;4.13;;